Time;durP1;ratioP1;P1;durP2;ratioP2;P2;SDS_P1;SDS_P2;PMS_P1;PMS_P2;Temp;Humidity;BMP_temperature;BMP_pressure;BME280_temperature;BME280_humidity;BME280_pressure;Samples;Min_cycle;Max_cycle;Signal;HPM_P1;HPM_P2
2024/02/20 00:00:36;;;;;;;;;;;;;;;-144.99;100.00;52649.88;5055435;28;19932;-68
2024/02/20 00:03:37;;;;;;;;;;;;;;;-144.99;100.00;52619.31;5061418;28;20417;-65
2024/02/20 00:06:04;;;;;;;;;;;;;;;-144.99;100.00;52603.00;5057407;28;19924;-69
2024/02/20 00:08:30;;;;;;;;;;;;;;;-144.99;100.00;52598.94;5053993;28;20627;-71
2024/02/20 00:10:59;;;;;;;;;;;;;;;-144.99;100.00;52576.50;5056891;28;19978;-71
2024/02/20 00:13:25;;;;;;;;;;;;;;;-144.99;100.00;52594.84;5057326;28;19966;-71
2024/02/20 00:15:52;;;;;;;;;;;;;;;-144.99;100.00;52660.09;5069028;28;19931;-72
2024/02/20 00:18:18;;;;;;;;;;;;;;;-144.99;100.00;52619.31;5057289;28;20039;-72
2024/02/20 00:20:45;;;;;;;;;;;;;;;-144.99;100.00;52639.69;5039586;28;19928;-74
2024/02/20 00:23:27;;;;;;;;;;;;;;;-144.99;100.00;52613.19;5066767;28;20373;-72
2024/02/20 00:25:53;;;;;;;;;;;;;;;-144.99;100.00;52619.31;5050601;28;20113;-69
2024/02/20 00:28:21;;;;;;;;;;;;;;;-144.99;100.00;52586.69;5054455;28;19964;-68
2024/02/20 00:30:48;;;;;;;;;;;;;;;-144.99;100.00;52594.84;5063839;28;20014;-67
2024/02/20 00:33:14;;;;;;;;;;;;;;;-144.99;100.00;52605.03;5054617;28;19963;-67
2024/02/20 00:35:41;;;;;;;;;;;;;;;-144.99;100.00;52615.25;5050625;28;20019;-68
2024/02/20 00:38:07;;;;;;;;;;;;;;;-144.99;100.00;52603.00;5055173;28;20299;-67
2024/02/20 00:40:34;;;;;;;;;;;;;;;-144.99;100.00;52596.88;5055390;28;19972;-67
2024/02/20 00:43:00;;;;;;;;;;;;;;;-144.99;100.00;52570.38;5056692;28;20000;-67
2024/02/20 00:45:28;;;;;;;;;;;;;;;-144.99;100.00;52607.09;5056442;28;20394;-68
2024/02/20 01:00:13;;;;;;;;;;;;;;;-144.99;100.00;52631.53;5056328;28;20417;-69
2024/02/20 01:02:41;;;;;;;;;;;;;;;-144.99;100.00;52598.94;5058129;28;19931;-68
2024/02/20 01:05:09;;;;;;;;;;;;;;;-144.99;100.00;52639.69;5064380;28;20287;-68
2024/02/20 01:07:37;;;;;;;;;;;;;;;-144.99;100.00;52560.19;5071320;28;19925;-68
2024/02/20 01:10:04;;;;;;;;;;;;;;;-144.99;100.00;52594.84;5054581;28;20337;-69
2024/02/20 01:12:31;;;;;;;;;;;;;;;-144.99;100.00;52607.09;5054481;28;19987;-69
2024/02/20 01:14:57;;;;;;;;;;;;;;;-144.99;100.00;52619.31;5053772;28;19933;-68
2024/02/20 01:17:24;;;;;;;;;;;;;;;-144.99;100.00;52619.31;5056657;28;19939;-69
2024/02/20 01:19:52;;;;;;;;;;;;;;;-144.99;100.00;52615.25;5061623;28;19933;-69
2024/02/20 01:22:18;;;;;;;;;;;;;;;-144.99;100.00;52621.34;5057691;28;20023;-68
2024/02/20 01:24:45;;;;;;;;;;;;;;;-144.99;100.00;52627.47;5056961;28;19935;-67
2024/02/20 01:27:11;;;;;;;;;;;;;;;-144.99;100.00;52574.47;5083958;22;19971;-72
2024/02/20 01:29:38;;;;;;;;;;;;;;;-144.99;100.00;52625.44;5088499;28;20047;-71
2024/02/20 01:32:04;;;;;;;;;;;;;;;-144.99;100.00;52625.44;5087069;28;20422;-70
2024/02/20 01:34:31;;;;;;;;;;;;;;;-144.99;100.00;52611.16;5090843;28;20344;-69
2024/02/20 01:36:59;;;;;;;;;;;;;;;-144.99;100.00;52603.00;5090244;28;20051;-70
2024/02/20 01:39:26;;;;;;;;;;;;;;;-144.99;100.00;52611.16;5086553;28;19997;-70
2024/02/20 01:41:52;;;;;;;;;;;;;;;-144.99;100.00;52588.75;5082507;28;20029;-70
2024/02/20 01:44:19;;;;;;;;;;;;;;;-144.99;100.00;52580.59;5090860;28;19978;-68
2024/02/20 01:46:46;;;;;;;;;;;;;;;-144.99;100.00;52643.78;5088458;28;19934;-69
2024/02/20 01:49:13;;;;;;;;;;;;;;;-144.99;100.00;52631.53;5086983;28;19935;-68
2024/02/20 01:51:40;;;;;;;;;;;;;;;-144.99;100.00;52623.38;5086441;28;19958;-67
2024/02/20 01:54:07;;;;;;;;;;;;;;;-144.99;100.00;52562.25;5084636;28;20015;-67
2024/02/20 01:56:36;;;;;;;;;;;;;;;-144.99;100.00;52623.38;5088200;28;19924;-67
2024/02/20 01:59:02;;;;;;;;;;;;;;;-144.99;100.00;52603.00;5087554;28;20386;-66
2024/02/20 02:01:29;;;;;;;;;;;;;;;-144.99;100.00;52592.81;5088377;28;19928;-68
2024/02/20 02:03:55;;;;;;;;;;;;;;;-144.99;100.00;52598.94;5087370;28;19932;-68
2024/02/20 02:06:27;;;;;;;;;;;;;;;-144.99;100.00;52594.84;5088081;28;19961;-67
2024/02/20 02:08:53;;;;;;;;;;;;;;;-144.99;100.00;52598.94;5085140;28;20003;-67
2024/02/20 02:11:21;;;;;;;;;;;;;;;-144.99;100.00;52578.53;5085240;28;20608;-68
2024/02/20 02:13:48;;;;;;;;;;;;;;;-144.99;100.00;52625.44;5086198;28;20413;-72
2024/02/20 02:16:14;;;;;;;;;;;;;;;-144.99;100.00;52623.38;5086542;28;19948;-71
2024/02/20 02:18:40;;;;;;;;;;;;;;;-144.99;100.00;52615.25;5084390;28;20023;-70
2024/02/20 02:21:07;;;;;;;;;;;;;;;-144.99;100.00;52619.31;5085907;28;20570;-71
2024/02/20 02:23:33;;;;;;;;;;;;;;;-144.99;100.00;52586.69;5086447;28;19928;-72
2024/02/20 02:26:00;;;;;;;;;;;;;;;-144.99;100.00;52603.00;5083657;28;19971;-70
2024/02/20 02:28:28;;;;;;;;;;;;;;;-144.99;100.00;52627.47;5086173;28;20006;-72
2024/02/20 02:30:54;;;;;;;;;;;;;;;-144.99;100.00;52611.16;5083520;28;19939;-70
2024/02/20 02:33:20;;;;;;;;;;;;;;;-144.99;100.00;52574.47;5090620;28;19927;-70
2024/02/20 02:35:47;;;;;;;;;;;;;;;-144.99;100.00;52598.94;5087787;28;20421;-69
2024/02/20 02:38:13;;;;;;;;;;;;;;;-144.99;100.00;52619.31;5085566;28;20326;-70
2024/02/20 02:40:40;;;;;;;;;;;;;;;-144.99;100.00;52629.50;5085898;28;20372;-70
2024/02/20 02:43:06;;;;;;;;;;;;;;;-144.99;100.00;52627.47;5083462;28;19924;-70
2024/02/20 02:45:35;;;;;;;;;;;;;;;-144.99;100.00;52623.38;5083505;28;20452;-71
2024/02/20 02:48:03;;;;;;;;;;;;;;;-144.99;100.00;52598.94;5084071;28;19928;-71
2024/02/20 02:50:30;;;;;;;;;;;;;;;-144.99;100.00;52629.50;5084239;28;19934;-71
2024/02/20 02:52:56;;;;;;;;;;;;;;;-144.99;100.00;52623.38;5085664;28;20341;-72
2024/02/20 02:55:25;;;;;;;;;;;;;;;-144.99;100.00;52590.78;5084223;28;20371;-72
2024/02/20 02:57:51;;;;;;;;;;;;;;;-144.99;100.00;52584.66;5088322;28;19964;-71
2024/02/20 03:00:18;;;;;;;;;;;;;;;-144.99;100.00;52594.84;5091559;28;20018;-70
2024/02/20 03:02:47;;;;;;;;;;;;;;;-144.99;100.00;52643.78;5086858;28;19924;-71
2024/02/20 03:05:15;;;;;;;;;;;;;;;-144.99;100.00;52647.84;5085926;28;19931;-71
2024/02/20 03:07:41;;;;;;;;;;;;;;;-144.99;100.00;52639.69;5086372;28;19934;-71
2024/02/20 03:10:09;;;;;;;;;;;;;;;-144.99;100.00;52603.00;5082967;28;19932;-70
2024/02/20 03:12:35;;;;;;;;;;;;;;;-144.99;100.00;52615.25;5088270;28;19969;-72
2024/02/20 03:15:02;;;;;;;;;;;;;;;-144.99;100.00;52639.69;5087082;28;19924;-70
2024/02/20 03:17:28;;;;;;;;;;;;;;;-144.99;100.00;52627.47;5087263;28;20019;-70
2024/02/20 03:19:56;;;;;;;;;;;;;;;-144.99;100.00;52623.38;5091270;28;19950;-69
2024/02/20 03:22:23;;;;;;;;;;;;;;;-144.99;100.00;52647.84;5085732;28;19928;-69
2024/02/20 03:24:49;;;;;;;;;;;;;;;-144.99;100.00;52623.38;5083847;28;19971;-68
2024/02/20 03:27:16;;;;;;;;;;;;;;;-144.99;100.00;52635.63;5086200;28;20018;-70
2024/02/20 03:29:43;;;;;;;;;;;;;;;-144.99;100.00;52623.38;5086895;28;19934;-70
2024/02/20 03:32:09;;;;;;;;;;;;;;;-144.99;100.00;52570.38;5090057;28;19927;-71
2024/02/20 03:34:35;;;;;;;;;;;;;;;-144.99;100.00;52641.72;5086057;28;20427;-69
2024/02/20 03:37:04;;;;;;;;;;;;;;;-144.99;100.00;52635.63;5084671;28;20018;-68
2024/02/20 03:39:30;;;;;;;;;;;;;;;-144.99;100.00;52582.63;5088652;28;19939;-68
2024/02/20 03:41:57;;;;;;;;;;;;;;;-144.99;100.00;52643.78;5089218;28;20019;-69
2024/02/20 03:44:23;;;;;;;;;;;;;;;-144.99;100.00;52607.09;5082895;28;19934;-69
2024/02/20 03:46:50;;;;;;;;;;;;;;;-144.99;100.00;52598.94;5080396;28;19932;-69
2024/02/20 03:49:16;;;;;;;;;;;;;;;-144.99;100.00;52609.13;5083367;28;19989;-69
2024/02/20 03:51:44;;;;;;;;;;;;;;;-144.99;100.00;52639.69;5082949;28;20013;-68
2024/02/20 03:54:12;;;;;;;;;;;;;;;-144.99;100.00;52590.78;5084588;28;19967;-70
2024/02/20 03:56:38;;;;;;;;;;;;;;;-144.99;100.00;52594.84;5082111;28;19924;-70
2024/02/20 03:59:05;;;;;;;;;;;;;;;-144.99;100.00;52629.50;5084086;28;20405;-71
2024/02/20 04:01:31;;;;;;;;;;;;;;;-144.99;100.00;52627.47;5082880;28;20414;-70
2024/02/20 04:03:57;;;;;;;;;;;;;;;-144.99;100.00;52611.16;5083945;28;19955;-71
2024/02/20 04:06:24;;;;;;;;;;;;;;;-144.99;100.00;52615.25;5086353;28;19932;-68
2024/02/20 04:08:51;;;;;;;;;;;;;;;-144.99;100.00;52586.69;5083374;28;20003;-68
2024/02/20 04:11:19;;;;;;;;;;;;;;;-144.99;100.00;52582.63;5086234;28;19932;-69
2024/02/20 04:13:45;;;;;;;;;;;;;;;-144.99;100.00;52615.25;5080826;28;19964;-68
2024/02/20 04:16:12;;;;;;;;;;;;;;;-144.99;100.00;52643.78;5088897;28;19932;-69
2024/02/20 04:18:40;;;;;;;;;;;;;;;-144.99;100.00;52590.78;5085273;28;20697;-69
2024/02/20 04:21:06;;;;;;;;;;;;;;;-144.99;100.00;52586.69;5084474;28;20019;-70
2024/02/20 04:23:33;;;;;;;;;;;;;;;-144.99;100.00;52623.38;5110065;28;19991;-69
2024/02/20 04:25:59;;;;;;;;;;;;;;;-144.99;100.00;52643.78;5104966;28;19924;-69
2024/02/20 04:28:28;;;;;;;;;;;;;;;-144.99;100.00;52627.47;5106507;28;19928;-69
2024/02/20 04:30:55;;;;;;;;;;;;;;;-144.99;100.00;52635.63;5104480;28;19991;-69
2024/02/20 04:33:21;;;;;;;;;;;;;;;-144.99;100.00;52656.00;5107063;28;19985;-70
2024/02/20 04:35:49;;;;;;;;;;;;;;;-144.99;100.00;52647.84;5104939;28;19955;-69
2024/02/20 04:38:15;;;;;;;;;;;;;;;-144.99;100.00;52627.47;5109411;28;19924;-70
2024/02/20 04:40:42;;;;;;;;;;;;;;;-144.99;100.00;52603.00;5106210;28;19954;-69
2024/02/20 04:43:08;;;;;;;;;;;;;;;-144.99;100.00;52631.53;5110910;28;19924;-69
2024/02/20 04:45:36;;;;;;;;;;;;;;;-144.99;100.00;52631.53;5112888;28;19924;-69
2024/02/20 04:48:02;;;;;;;;;;;;;;;-144.99;100.00;52615.25;5110208;28;19920;-68
2024/02/20 04:50:29;;;;;;;;;;;;;;;-144.99;100.00;52611.16;5110111;28;19925;-68
2024/02/20 04:52:55;;;;;;;;;;;;;;;-144.99;100.00;52619.31;5091742;28;20491;-68
2024/02/20 04:55:22;;;;;;;;;;;;;;;-144.99;100.00;52598.94;5080894;28;20448;-70
2024/02/20 04:57:48;;;;;;;;;;;;;;;-144.99;100.00;52598.94;5089045;28;19970;-71
2024/02/20 05:00:16;;;;;;;;;;;;;;;-144.99;100.00;52651.94;5095526;28;20379;-69
2024/02/20 05:02:44;;;;;;;;;;;;;;;-144.99;100.00;52653.97;5092222;28;19930;-69
2024/02/20 05:05:11;;;;;;;;;;;;;;;-144.99;100.00;52590.78;5085683;28;20036;-70
2024/02/20 05:07:37;;;;;;;;;;;;;;;-144.99;100.00;52623.38;5084108;28;19925;-68
2024/02/20 05:10:05;;;;;;;;;;;;;;;-144.99;100.00;52611.16;5089363;28;19935;-71
2024/02/20 05:12:32;;;;;;;;;;;;;;;-144.99;100.00;52623.38;5088032;28;19928;-70
2024/02/20 05:14:58;;;;;;;;;;;;;;;-144.99;100.00;52611.16;5088622;28;19971;-69
2024/02/20 05:17:24;;;;;;;;;;;;;;;-144.99;100.00;52619.31;5083830;28;19955;-71
2024/02/20 05:19:52;;;;;;;;;;;;;;;-144.99;100.00;52623.38;5092062;28;20043;-71
2024/02/20 05:22:19;;;;;;;;;;;;;;;-144.99;100.00;52635.63;5084170;28;20023;-70
2024/02/20 05:24:46;;;;;;;;;;;;;;;-144.99;100.00;52603.00;5087635;28;20376;-70
2024/02/20 05:27:12;;;;;;;;;;;;;;;-144.99;100.00;52631.53;5089386;28;20043;-71
2024/02/20 05:29:38;;;;;;;;;;;;;;;-144.99;100.00;52623.38;5086813;28;19964;-70
2024/02/20 05:32:05;;;;;;;;;;;;;;;-144.99;100.00;52621.34;5091705;28;19939;-70
2024/02/20 05:34:31;;;;;;;;;;;;;;;-144.99;100.00;52639.69;5089087;28;19925;-69
2024/02/20 05:36:59;;;;;;;;;;;;;;;-144.99;100.00;52623.38;5085238;28;20023;-69
2024/02/20 05:39:26;;;;;;;;;;;;;;;-144.99;100.00;52605.03;5088098;28;20435;-68
2024/02/20 05:41:52;;;;;;;;;;;;;;;-144.99;100.00;52598.94;5088818;28;19927;-70
2024/02/20 05:44:19;;;;;;;;;;;;;;;-144.99;100.00;52643.78;5086244;28;20054;-69
2024/02/20 05:46:45;;;;;;;;;;;;;;;-144.99;100.00;52643.78;5094271;28;20004;-70
2024/02/20 05:49:12;;;;;;;;;;;;;;;-144.99;100.00;52598.94;5089581;28;20006;-69
2024/02/20 05:51:38;;;;;;;;;;;;;;;-144.99;100.00;52590.78;5091227;28;20751;-69
2024/02/20 05:54:06;;;;;;;;;;;;;;;-144.99;100.00;52615.25;5083607;28;20406;-70
2024/02/20 05:56:33;;;;;;;;;;;;;;;-144.99;100.00;52578.53;5086037;28;20032;-69
2024/02/20 05:58:59;;;;;;;;;;;;;;;-144.99;100.00;52598.94;5084437;28;20504;-68
2024/02/20 06:01:26;;;;;;;;;;;;;;;-144.99;100.00;52613.19;5087323;28;19924;-69
2024/02/20 06:03:52;;;;;;;;;;;;;;;-144.99;100.00;52643.78;5087473;28;20886;-68
2024/02/20 06:06:18;;;;;;;;;;;;;;;-144.99;100.00;52603.00;5084982;28;20315;-69
2024/02/20 06:08:45;;;;;;;;;;;;;;;-144.99;100.00;52613.19;5083980;28;19963;-69
2024/02/20 06:11:14;;;;;;;;;;;;;;;-144.99;100.00;52647.84;5089495;28;19924;-70
2024/02/20 06:13:40;;;;;;;;;;;;;;;-144.99;100.00;52641.72;5085768;28;19935;-69
2024/02/20 06:16:07;;;;;;;;;;;;;;;-144.99;100.00;52590.78;5090340;28;20837;-70
2024/02/20 06:18:34;;;;;;;;;;;;;;;-144.99;100.00;52635.63;5083748;28;20020;-70
2024/02/20 06:21:00;;;;;;;;;;;;;;;-144.99;100.00;52625.44;5085988;28;20855;-70
2024/02/20 06:23:26;;;;;;;;;;;;;;;-144.99;100.00;52594.84;5082624;28;20417;-71
2024/02/20 06:25:53;;;;;;;;;;;;;;;-144.99;100.00;52645.81;5083973;28;20019;-70
2024/02/20 06:28:21;;;;;;;;;;;;;;;-144.99;100.00;52594.84;5093685;28;19956;-72
2024/02/20 06:30:48;;;;;;;;;;;;;;;-144.99;100.00;52643.78;5088324;28;20395;-71
2024/02/20 06:33:14;;;;;;;;;;;;;;;-144.99;100.00;52607.09;5079285;28;19946;-70
2024/02/20 06:35:41;;;;;;;;;;;;;;;-144.99;100.00;52631.53;5084755;28;19928;-70
2024/02/20 06:38:08;;;;;;;;;;;;;;;-144.99;100.00;52623.38;5084384;28;20026;-71
2024/02/20 06:40:35;;;;;;;;;;;;;;;-144.99;100.00;52649.88;5081447;28;19924;-71
2024/02/20 06:43:01;;;;;;;;;;;;;;;-144.99;100.00;52582.63;5084487;28;19928;-70
2024/02/20 06:45:29;;;;;;;;;;;;;;;-144.99;100.00;52627.47;5085739;28;19972;-71
2024/02/20 06:47:56;;;;;;;;;;;;;;;-144.99;100.00;52643.78;5085168;28;19997;-71
2024/02/20 06:50:22;;;;;;;;;;;;;;;-144.99;100.00;52615.25;5085618;28;20022;-70
2024/02/20 06:52:49;;;;;;;;;;;;;;;-144.99;100.00;52623.38;5084431;28;19967;-72
2024/02/20 06:55:15;;;;;;;;;;;;;;;-144.99;100.00;52656.00;5085162;28;19967;-70
2024/02/20 06:57:43;;;;;;;;;;;;;;;-144.99;100.00;52621.34;5082666;28;20422;-69
2024/02/20 07:00:11;;;;;;;;;;;;;;;-144.99;100.00;52627.47;5091474;28;19924;-71
2024/02/20 07:02:40;;;;;;;;;;;;;;;-144.99;100.00;52611.16;5088021;28;19955;-71
2024/02/20 07:05:06;;;;;;;;;;;;;;;-144.99;100.00;52598.94;5089458;28;19929;-71
2024/02/20 07:07:33;;;;;;;;;;;;;;;-144.99;100.00;52594.84;5084331;28;19964;-71
2024/02/20 07:09:59;;;;;;;;;;;;;;;-144.99;100.00;52603.00;5080721;28;20011;-70
2024/02/20 07:12:25;;;;;;;;;;;;;;;-144.99;100.00;52627.47;5090811;28;19971;-71
2024/02/20 07:14:52;;;;;;;;;;;;;;;-144.99;100.00;52643.78;5087641;28;20018;-70
2024/02/20 07:17:19;;;;;;;;;;;;;;;-144.99;100.00;52635.63;5087259;28;20432;-71
2024/02/20 07:19:46;;;;;;;;;;;;;;;-144.99;100.00;52629.50;5089878;28;20366;-71
2024/02/20 07:22:13;;;;;;;;;;;;;;;-144.99;100.00;52635.63;5088724;28;20481;-67
2024/02/20 07:24:39;;;;;;;;;;;;;;;-144.99;100.00;52621.34;5090274;28;19927;-68
2024/02/20 07:27:06;;;;;;;;;;;;;;;-144.99;100.00;52633.59;5101058;22;20051;-70
2024/02/20 07:29:33;;;;;;;;;;;;;;;-144.99;100.00;52629.50;5054354;28;19933;-72
2024/02/20 07:31:59;;;;;;;;;;;;;;;-144.99;100.00;52651.94;5055629;28;19991;-72
2024/02/20 07:34:26;;;;;;;;;;;;;;;-144.99;100.00;52623.38;5059651;28;19925;-77
2024/02/20 07:36:54;;;;;;;;;;;;;;;-144.99;100.00;52660.09;5068427;28;19929;-78
2024/02/20 07:39:20;;;;;;;;;;;;;;;-144.99;100.00;52621.34;5056121;28;19925;-76
2024/02/20 07:41:47;;;;;;;;;;;;;;;-144.99;100.00;52615.25;5052009;28;20050;-77
2024/02/20 07:44:13;;;;;;;;;;;;;;;-144.99;100.00;52647.84;5046869;28;19966;-77
2024/02/20 07:46:40;;;;;;;;;;;;;;;-144.99;100.00;52647.84;5044405;28;19979;-76
2024/02/20 07:49:06;;;;;;;;;;;;;;;-144.99;100.00;52607.09;5048315;28;20292;-76
2024/02/20 07:51:34;;;;;;;;;;;;;;;-144.99;100.00;52607.09;5041657;28;20340;-76
2024/02/20 07:54:02;;;;;;;;;;;;;;;-144.99;100.00;52631.53;5044518;28;21497;-70
2024/02/20 07:56:29;;;;;;;;;;;;;;;-144.99;100.00;52592.81;5042637;28;19975;-70
2024/02/20 07:58:55;;;;;;;;;;;;;;;-144.99;100.00;52588.75;5045730;28;20028;-70
2024/02/20 08:01:23;;;;;;;;;;;;;;;-144.99;100.00;52570.38;5046035;28;20007;-70
2024/02/20 08:03:49;;;;;;;;;;;;;;;-144.99;100.00;52645.81;5047038;28;19925;-70
2024/02/20 08:06:16;;;;;;;;;;;;;;;-144.99;100.00;52603.00;5045622;28;19925;-70
2024/02/20 08:08:42;;;;;;;;;;;;;;;-144.99;100.00;52582.63;5047797;28;19982;-71
2024/02/20 08:11:10;;;;;;;;;;;;;;;-144.99;100.00;52598.94;5043442;28;20000;-69
2024/02/20 08:13:41;;;;;;;;;;;;;;;-144.99;100.00;52594.84;5045443;28;19998;-70
2024/02/20 08:16:10;;;;;;;;;;;;;;;-144.99;100.00;52543.91;5050431;28;19986;-70
2024/02/20 08:18:37;;;;;;;;;;;;;;;-144.99;100.00;52578.53;5047837;28;20436;-70
2024/02/20 08:21:03;;;;;;;;;;;;;;;-144.99;100.00;52611.16;5046338;28;20090;-70
2024/02/20 08:23:30;;;;;;;;;;;;;;;-144.99;100.00;52643.78;5044416;28;19929;-70
2024/02/20 08:25:56;;;;;;;;;;;;;;;-144.99;100.00;52570.38;5045739;28;19972;-70
2024/02/20 08:28:24;;;;;;;;;;;;;;;-144.99;100.00;52578.53;5046686;28;20379;-70
2024/02/20 08:30:51;;;;;;;;;;;;;;;-144.99;100.00;52598.94;5047162;28;19928;-70
2024/02/20 08:33:17;;;;;;;;;;;;;;;-144.99;100.00;52607.09;5043241;28;19933;-70
2024/02/20 08:35:45;;;;;;;;;;;;;;;-144.99;100.00;52558.16;5046097;28;20023;-70
2024/02/20 08:38:12;;;;;;;;;;;;;;;-144.99;100.00;52566.31;5050697;28;19929;-70
2024/02/20 08:40:38;;;;;;;;;;;;;;;-144.99;100.00;52603.00;5050368;28;19986;-69
2024/02/20 08:43:05;;;;;;;;;;;;;;;-144.99;100.00;52605.03;5045232;28;19925;-69
2024/02/20 08:45:32;;;;;;;;;;;;;;;-144.99;100.00;52574.47;5045754;28;19931;-69
2024/02/20 08:48:01;;;;;;;;;;;;;;;-144.99;100.00;52545.94;5041900;28;20328;-68
2024/02/20 08:50:27;;;;;;;;;;;;;;;-144.99;100.00;52578.53;5049725;28;19928;-69
2024/02/20 08:52:54;;;;;;;;;;;;;;;-144.99;100.00;52586.69;5048710;28;20015;-68
2024/02/20 08:55:21;;;;;;;;;;;;;;;-144.99;100.00;52578.53;5044369;28;20333;-68
2024/02/20 08:57:47;;;;;;;;;;;;;;;-144.99;100.00;52578.53;5027240;28;20020;-69
2024/02/20 09:00:16;;;;;;;;;;;;;;;-144.99;100.00;52594.84;5028832;28;19975;-69
2024/02/20 09:02:44;;;;;;;;;;;;;;;-144.99;100.00;52603.00;5047513;28;19937;-69
2024/02/20 09:05:11;;;;;;;;;;;;;;;-144.99;100.00;52600.97;5047047;28;20439;-68
2024/02/20 09:07:38;;;;;;;;;;;;;;;-144.99;100.00;52598.94;5049817;28;19960;-68
2024/02/20 09:10:05;;;;;;;;;;;;;;;-144.99;100.00;52603.00;5050738;28;19928;-69
2024/02/20 09:12:31;;;;;;;;;;;;;;;-144.99;100.00;52631.53;5049630;28;19952;-67
2024/02/20 09:15:00;;;;;;;;;;;;;;;-144.99;100.00;52596.88;5049218;28;19931;-67
2024/02/20 09:17:26;;;;;;;;;;;;;;;-144.99;100.00;52637.66;5049784;28;20063;-67
2024/02/20 09:19:54;;;;;;;;;;;;;;;-144.99;100.00;52580.59;5045341;28;20011;-67
2024/02/20 09:22:21;;;;;;;;;;;;;;;-144.99;100.00;52613.19;5051562;28;19925;-67
2024/02/20 09:24:47;;;;;;;;;;;;;;;-144.99;100.00;52607.09;5050487;28;20030;-68
2024/02/20 09:27:14;;;;;;;;;;;;;;;-144.99;100.00;52623.38;5050398;28;19953;-68
2024/02/20 09:29:40;;;;;;;;;;;;;;;-144.99;100.00;52639.69;5051065;28;20011;-67
2024/02/20 09:32:08;;;;;;;;;;;;;;;-144.99;100.00;52623.38;5050672;28;19990;-67
2024/02/20 09:34:35;;;;;;;;;;;;;;;-144.99;100.00;52651.94;5050181;28;19925;-68
2024/02/20 09:37:03;;;;;;;;;;;;;;;-144.99;100.00;52647.84;5050313;28;19979;-67
2024/02/20 09:39:29;;;;;;;;;;;;;;;-144.99;100.00;52635.63;5050822;28;19925;-67
2024/02/20 09:41:57;;;;;;;;;;;;;;;-144.99;100.00;52643.78;5050269;28;20030;-67
2024/02/20 09:44:26;;;;;;;;;;;;;;;-144.99;100.00;52586.69;5047276;28;19972;-67
2024/02/20 09:46:53;;;;;;;;;;;;;;;-144.99;100.00;52633.59;5049943;28;19982;-67
2024/02/20 09:49:20;;;;;;;;;;;;;;;-144.99;100.00;52574.47;5050167;28;20422;-67
2024/02/20 09:51:47;;;;;;;;;;;;;;;-144.99;100.00;52566.31;5049970;28;20388;-68
2024/02/20 09:54:15;;;;;;;;;;;;;;;-144.99;100.00;52590.78;5050003;28;19928;-67
2024/02/20 09:56:42;;;;;;;;;;;;;;;-144.99;100.00;52594.84;5049609;28;19964;-67
2024/02/20 09:59:09;;;;;;;;;;;;;;;-144.99;100.00;52627.47;5049567;28;20367;-67
2024/02/20 10:01:36;;;;;;;;;;;;;;;-144.99;100.00;52635.63;5049624;28;20363;-67
2024/02/20 10:04:04;;;;;;;;;;;;;;;-144.99;100.00;52582.63;5049334;28;19928;-67
2024/02/20 10:06:30;;;;;;;;;;;;;;;-144.99;100.00;52647.84;5049546;28;20229;-67
2024/02/20 10:08:57;;;;;;;;;;;;;;;-144.99;100.00;52635.63;5049267;28;19972;-67
2024/02/20 10:11:25;;;;;;;;;;;;;;;-144.99;100.00;52603.00;5049042;28;20018;-67
2024/02/20 10:13:52;;;;;;;;;;;;;;;-144.99;100.00;52570.38;5049414;28;20004;-67
2024/02/20 10:16:19;;;;;;;;;;;;;;;-144.99;100.00;52611.16;5048880;28;19987;-67
2024/02/20 10:18:56;;;;;;;;;;;;;;;-144.99;100.00;52627.47;5048808;28;20012;-67
2024/02/20 10:21:22;;;;;;;;;;;;;;;-144.99;100.00;52596.88;5049156;28;20129;-67
2024/02/20 10:23:48;;;;;;;;;;;;;;;-144.99;100.00;52670.28;5049835;28;19970;-67
2024/02/20 10:26:19;;;;;;;;;;;;;;;-144.99;100.00;52643.78;5048827;28;19959;-67
2024/02/20 10:28:46;;;;;;;;;;;;;;;-144.99;100.00;52582.63;5048929;28;19925;-67
2024/02/20 10:31:13;;;;;;;;;;;;;;;-144.99;100.00;52625.44;5048927;28;19968;-67
2024/02/20 10:33:50;;;;;;;;;;;;;;;-144.99;100.00;52660.09;5048639;28;19964;-67
2024/02/20 10:36:19;;;;;;;;;;;;;;;-144.99;100.00;52611.16;5048464;28;19933;-67
2024/02/20 10:38:47;;;;;;;;;;;;;;;-144.99;100.00;52611.16;5049196;28;19968;-67
2024/02/20 10:41:15;;;;;;;;;;;;;;;-144.99;100.00;52562.25;5048209;28;19971;-67
2024/02/20 10:43:43;;;;;;;;;;;;;;;-144.99;100.00;52603.00;5049386;28;20008;-67
2024/02/20 10:46:12;;;;;;;;;;;;;;;-144.99;100.00;52603.00;5049384;28;20004;-67
2024/02/20 10:48:39;;;;;;;;;;;;;;;-144.99;100.00;52582.63;5048611;28;19939;-67
2024/02/20 10:51:07;;;;;;;;;;;;;;;-144.99;100.00;52623.38;5049086;28;20030;-67
2024/02/20 10:53:33;;;;;;;;;;;;;;;-144.99;100.00;52566.31;5048655;28;19925;-68
2024/02/20 10:56:04;;;;;;;;;;;;;;;-144.99;100.00;52611.16;5048736;28;20123;-67
2024/02/20 10:58:31;;;;;;;;;;;;;;;-144.99;100.00;52615.25;5046530;28;19932;-67
2024/02/20 11:00:58;;;;;;;;;;;;;;;-144.99;100.00;52562.25;5048127;28;19925;-67
2024/02/20 11:03:26;;;;;;;;;;;;;;;-144.99;100.00;52615.25;5051697;28;19964;-67
2024/02/20 11:05:57;;;;;;;;;;;;;;;-144.99;100.00;52603.00;5048900;28;20393;-67
2024/02/20 11:08:25;;;;;;;;;;;;;;;-144.99;100.00;52619.31;5048449;28;19929;-67
2024/02/20 11:10:52;;;;;;;;;;;;;;;-144.99;100.00;52627.47;5048219;28;19947;-67
2024/02/20 11:13:21;;;;;;;;;;;;;;;-144.99;100.00;52611.16;5048484;28;19937;-67
2024/02/20 11:15:49;;;;;;;;;;;;;;;-144.99;100.00;52623.38;5048029;28;19996;-67
2024/02/20 11:18:16;;;;;;;;;;;;;;;-144.99;100.00;52615.25;5048142;28;19925;-67
2024/02/20 11:20:44;;;;;;;;;;;;;;;-144.99;100.00;52598.94;5048197;28;19971;-68
2024/02/20 11:23:11;;;;;;;;;;;;;;;-144.99;100.00;52594.84;5048407;28;19947;-68
2024/02/20 11:25:38;;;;;;;;;;;;;;;-144.99;100.00;52590.78;5048013;28;19994;-67
2024/02/20 11:28:12;;;;;;;;;;;;;;;-144.99;100.00;52611.16;5047726;28;20356;-67
2024/02/20 11:30:39;;;;;;;;;;;;;;;-144.99;100.00;52603.00;5048013;28;20255;-67
2024/02/20 11:33:13;;;;;;;;;;;;;;;-144.99;100.00;52629.50;5048147;28;20282;-67
2024/02/20 11:35:43;;;;;;;;;;;;;;;-144.99;100.00;52631.53;5047262;28;20196;-67
2024/02/20 11:38:11;;;;;;;;;;;;;;;-144.99;100.00;52600.97;5040404;28;19937;-67
2024/02/20 11:40:38;;;;;;;;;;;;;;;-144.99;100.00;52582.63;5048034;28;20016;-67
2024/02/20 11:43:05;;;;;;;;;;;;;;;-144.99;100.00;52566.31;5048010;28;20386;-67
2024/02/20 11:45:33;;;;;;;;;;;;;;;-144.99;100.00;52615.25;5048000;28;19932;-67
2024/02/20 11:48:01;;;;;;;;;;;;;;;-144.99;100.00;52609.13;5047817;28;20366;-67
2024/02/20 11:50:28;;;;;;;;;;;;;;;-144.99;100.00;52594.84;5047469;28;19964;-67
2024/02/20 11:52:58;;;;;;;;;;;;;;;-144.99;100.00;52627.47;5048859;28;19940;-67
2024/02/20 11:55:26;;;;;;;;;;;;;;;-144.99;100.00;52586.69;5047621;28;19986;-67
2024/02/20 11:57:53;;;;;;;;;;;;;;;-144.99;100.00;52619.31;5047859;28;20031;-67
2024/02/20 12:00:20;;;;;;;;;;;;;;;-144.99;100.00;52590.78;5048027;28;20012;-67
2024/02/20 12:02:47;;;;;;;;;;;;;;;-144.99;100.00;52574.47;5048127;28;19970;-67
2024/02/20 12:05:21;;;;;;;;;;;;;;;-144.99;100.00;52574.47;5046154;28;20268;-67
2024/02/20 12:07:47;;;;;;;;;;;;;;;-144.99;100.00;52611.16;5030872;28;20452;-67
2024/02/20 12:10:16;;;;;;;;;;;;;;;-144.99;100.00;52584.66;5047818;28;20018;-68
2024/02/20 12:12:43;;;;;;;;;;;;;;;-144.99;100.00;52545.94;5047581;28;20007;-67
2024/02/20 12:15:11;;;;;;;;;;;;;;;-144.99;100.00;52607.09;5047152;28;19980;-67
2024/02/20 12:17:41;;;;;;;;;;;;;;;-144.99;100.00;52600.97;5045707;28;19935;-67
2024/02/20 12:20:09;;;;;;;;;;;;;;;-144.99;100.00;52607.09;5046948;28;19925;-67
2024/02/20 12:22:35;;;;;;;;;;;;;;;-144.99;100.00;52627.47;5049357;28;19940;-67
2024/02/20 12:25:06;;;;;;;;;;;;;;;-144.99;100.00;52584.66;5047052;28;19979;-67
2024/02/20 12:27:33;;;;;;;;;;;;;;;-144.99;100.00;52582.63;5052960;28;19928;-68
2024/02/20 12:30:01;;;;;;;;;;;;;;;-144.99;100.00;52594.84;5047132;28;20399;-66